Time;durP1;ratioP1;P1;durP2;ratioP2;P2;SDS_P1;SDS_P2;PMS_P1;PMS_P2;Temp;Humidity;BMP_temperature;BMP_pressure;BME280_temperature;BME280_humidity;BME280_pressure;Samples;Min_cycle;Max_cycle;Signal;HPM_P1;HPM_P2
2022/03/04 00:00:09;;;;;;;12.93;7.28;;;;;;;6.38;73.14;99489.31;1750669;81;21076;-70
2022/03/04 00:02:38;;;;;;;12.80;8.38;;;;;;;6.11;73.76;99490.13;1750162;82;21107;-69
2022/03/04 00:05:06;;;;;;;12.50;6.87;;;;;;;6.04;73.77;99485.06;1750605;82;22145;-68
2022/03/04 00:07:32;;;;;;;10.75;6.58;;;;;;;5.88;74.94;99486.38;1749924;81;21070;-69
2022/03/04 00:09:59;;;;;;;9.40;6.25;;;;;;;5.97;75.34;99488.76;1750138;82;21056;-70
2022/03/04 00:12:25;;;;;;;9.40;6.12;;;;;;;6.03;74.84;99485.13;1749967;81;21005;-69
2022/03/04 00:14:51;;;;;;;12.90;7.67;;;;;;;6.00;74.58;99487.81;1750173;81;21088;-68
2022/03/04 00:17:18;;;;;;;13.13;8.10;;;;;;;5.97;75.16;99482.22;1749966;82;21594;-69
2022/03/04 00:19:44;;;;;;;12.95;8.20;;;;;;;5.92;75.20;99481.47;1740000;81;21054;-69
2022/03/04 00:22:10;;;;;;;13.35;8.65;;;;;;;5.99;75.97;99479.12;1736440;82;21632;-70
2022/03/04 00:24:37;;;;;;;15.28;9.40;;;;;;;6.04;75.45;99475.92;1736307;82;21021;-70
2022/03/04 00:27:04;;;;;;;13.85;8.28;;;;;;;5.96;74.68;99481.83;1736259;82;21065;-69
2022/03/04 00:29:31;;;;;;;13.60;8.93;;;;;;;5.91;75.46;99479.74;1736445;82;21447;-69
2022/03/04 00:31:57;;;;;;;15.32;8.95;;;;;;;5.98;75.97;99477.42;1736320;82;21063;-70
2022/03/04 00:34:25;;;;;;;11.90;7.30;;;;;;;5.98;75.07;99474.81;1736469;82;21014;-69
2022/03/04 00:36:52;;;;;;;12.68;8.05;;;;;;;5.96;75.57;99473.11;1736409;82;22198;-69
2022/03/04 00:39:18;;;;;;;11.45;7.10;;;;;;;6.00;75.23;99474.28;1736348;82;21057;-70
2022/03/04 00:41:44;;;;;;;14.15;8.08;;;;;;;6.05;75.88;99475.03;1736499;82;21304;-70
2022/03/04 00:44:11;;;;;;;13.80;7.87;;;;;;;6.19;75.41;99469.83;1736280;82;21069;-69
2022/03/04 00:46:37;;;;;;;12.60;7.40;;;;;;;6.29;74.74;99466.05;1736692;82;21016;-68
2022/03/04 00:49:04;;;;;;;14.58;8.23;;;;;;;6.19;74.23;99467.21;1736138;82;21065;-69
2022/03/04 00:51:30;;;;;;;10.40;6.85;;;;;;;6.14;74.73;99470.42;1736371;82;21105;-70
2022/03/04 00:53:57;;;;;;;11.83;7.25;;;;;;;6.23;74.91;99468.84;1737702;82;21112;-69
2022/03/04 00:56:23;;;;;;;13.78;8.38;;;;;;;6.28;73.94;99472.16;1742108;81;21525;-68
2022/03/04 00:58:49;;;;;;;12.28;8.08;;;;;;;6.27;73.83;99468.70;1742242;81;21058;-69
2022/03/04 01:01:16;;;;;;;14.70;9.45;;;;;;;6.22;73.00;99464.53;1742494;81;21043;-70
2022/03/04 01:03:42;;;;;;;14.95;8.63;;;;;;;5.87;73.35;99468.99;1742657;81;21618;-69
2022/03/04 01:06:09;;;;;;;12.03;7.70;;;;;;;5.51;74.62;99471.70;1742904;82;21121;-70
2022/03/04 01:08:35;;;;;;;11.00;7.37;;;;;;;5.35;75.32;99471.71;1742407;81;21106;-68
2022/03/04 01:11:02;;;;;;;11.08;7.12;;;;;;;5.26;77.52;99476.26;1742756;81;21018;-69
2022/03/04 01:13:28;;;;;;;12.55;7.47;;;;;;;5.41;77.25;99470.25;1742511;81;21281;-69
2022/03/04 01:15:55;;;;;;;16.37;9.25;;;;;;;5.41;76.46;99463.73;1742501;81;21032;-69
2022/03/04 01:18:21;;;;;;;14.13;9.05;;;;;;;5.37;76.53;99458.17;1742490;80;21139;-69
2022/03/04 01:20:47;;;;;;;14.58;9.63;;;;;;;5.21;76.51;99463.78;1755670;81;21112;-69
2022/03/04 01:23:13;;;;;;;13.62;8.35;;;;;;;5.05;76.90;99471.59;1755887;81;21014;-69
2022/03/04 01:25:41;;;;;;;14.78;8.45;;;;;;;5.07;78.64;99465.89;1755920;81;21577;-68
2022/03/04 01:28:07;;;;;;;15.83;8.28;;;;;;;5.18;78.14;99465.17;1755896;81;21089;-68
2022/03/04 01:30:33;;;;;;;11.85;7.03;;;;;;;5.19;77.84;99468.18;1756552;81;21105;-71
2022/03/04 01:33:00;;;;;;;12.23;7.75;;;;;;;5.22;77.35;99465.52;1755815;81;21026;-68
2022/03/04 01:35:26;;;;;;;16.37;9.85;;;;;;;5.29;78.10;99467.94;1756404;81;21054;-69
2022/03/04 01:37:53;;;;;;;13.28;8.58;;;;;;;5.37;77.50;99464.70;1755785;81;21045;-69
2022/03/04 01:40:19;;;;;;;16.32;10.13;;;;;;;5.29;76.99;99464.03;1756096;81;21104;-69
2022/03/04 01:42:45;;;;;;;16.52;10.25;;;;;;;5.29;77.02;99466.22;1755806;81;21161;-68
2022/03/04 01:45:12;;;;;;;15.25;8.98;;;;;;;5.22;77.32;99469.43;1755859;81;20990;-69
2022/03/04 01:47:41;;;;;;;18.62;9.98;;;;;;;5.31;77.78;99468.77;1755766;81;21057;-69
2022/03/04 01:50:09;;;;;;;18.65;10.28;;;;;;;5.31;77.16;99471.38;1756174;81;21577;-69
2022/03/04 01:52:36;;;;;;;18.15;10.05;;;;;;;5.28;77.55;99471.02;1756040;81;21056;-69
2022/03/04 01:55:03;;;;;;;20.35;12.10;;;;;;;5.22;77.81;99472.04;1752448;81;21172;-68
2022/03/04 01:57:30;;;;;;;21.17;12.20;;;;;;;5.19;77.26;99470.80;1750683;81;21046;-70
2022/03/04 01:59:56;;;;;;;23.05;12.45;;;;;;;5.06;77.64;99471.98;1756317;81;21116;-69
2022/03/04 02:02:22;;;;;;;21.33;12.20;;;;;;;4.93;78.11;99477.13;1755918;81;21072;-69
2022/03/04 02:04:50;;;;;;;20.43;11.12;;;;;;;4.86;78.15;99478.17;1756185;81;21049;-69
2022/03/04 02:07:17;;;;;;;16.42;9.80;;;;;;;4.86;79.34;99482.94;1756276;81;21148;-68
2022/03/04 02:09:43;;;;;;;19.37;9.80;;;;;;;5.01;79.08;99481.70;1755978;81;21026;-68
2022/03/04 02:12:10;;;;;;;17.80;10.00;;;;;;;5.11;78.33;99483.20;1756293;81;21045;-69
2022/03/04 02:14:36;;;;;;;17.37;9.80;;;;;;;5.22;78.40;99480.30;1755929;81;21081;-69
2022/03/04 02:17:04;;;;;;;21.52;12.33;;;;;;;5.28;77.45;99476.69;1756225;81;20998;-68
2022/03/04 02:19:30;;;;;;;23.32;11.43;;;;;;;5.17;77.12;99480.41;1751034;81;21022;-69
2022/03/04 02:22:02;;;;;;;19.92;10.13;;;;;;;5.00;77.49;99477.38;1742564;81;21588;-67
2022/03/04 02:24:30;;;;;;;18.80;10.45;;;;;;;4.87;78.35;99483.79;1742581;81;21058;-68
2022/03/04 02:26:58;;;;;;;16.57;9.30;;;;;;;4.87;78.63;99484.64;1742919;82;21062;-68
2022/03/04 02:29:25;;;;;;;18.65;9.75;;;;;;;5.07;79.54;99480.25;1742545;82;21038;-67
2022/03/04 02:31:51;;;;;;;21.02;12.55;;;;;;;5.33;78.90;99480.03;1742946;81;22102;-69
2022/03/04 02:34:18;;;;;;;16.80;10.05;;;;;;;5.54;77.67;99485.13;1742722;81;21010;-69
2022/03/04 02:36:45;;;;;;;19.55;11.10;;;;;;;5.46;76.84;99476.20;1742914;82;21081;-70
2022/03/04 02:39:11;;;;;;;16.62;9.03;;;;;;;5.52;76.90;99479.97;1742461;82;21542;-70
2022/03/04 02:41:38;;;;;;;19.92;10.78;;;;;;;5.49;76.60;99482.64;1742914;82;21030;-68
2022/03/04 02:44:07;;;;;;;20.70;12.13;;;;;;;5.50;76.65;99485.68;1742768;81;21110;-69
2022/03/04 02:46:34;;;;;;;21.77;12.15;;;;;;;5.50;76.04;99488.29;1742822;82;21022;-68
2022/03/04 02:49:01;;;;;;;19.73;11.48;;;;;;;5.29;75.50;99494.94;1742551;82;21038;-69
2022/03/04 02:51:27;;;;;;;17.25;9.10;;;;;;;5.28;76.99;99497.58;1742920;82;21474;-69
2022/03/04 02:53:53;;;;;;;20.05;10.10;;;;;;;5.25;76.78;99499.36;1742666;81;21093;-70
2022/03/04 02:56:21;;;;;;;15.88;8.90;;;;;;;5.33;76.81;99498.30;1742876;81;21155;-70
2022/03/04 02:58:47;;;;;;;14.95;9.50;;;;;;;5.46;76.72;99499.25;1742600;82;21511;-69
2022/03/04 03:01:13;;;;;;;19.32;10.88;;;;;;;5.47;75.44;99494.88;1743096;82;21022;-70
2022/03/04 03:03:40;;;;;;;18.95;9.88;;;;;;;5.45;75.09;99495.36;1742659;81;21026;-70
2022/03/04 03:06:06;;;;;;;16.85;8.90;;;;;;;5.34;75.25;99495.67;1742621;82;21097;-69
2022/03/04 03:08:32;;;;;;;20.30;10.28;;;;;;;5.29;75.21;99500.58;1742449;81;21181;-69
2022/03/04 03:10:59;;;;;;;17.62;9.60;;;;;;;5.34;74.74;99497.42;1742519;82;21030;-69
2022/03/04 03:13:26;;;;;;;17.02;8.83;;;;;;;5.28;75.04;99500.19;1742443;81;21699;-70
2022/03/04 03:15:52;;;;;;;16.10;8.75;;;;;;;5.30;74.97;99503.62;1742542;81;21096;-68
2022/03/04 03:18:18;;;;;;;21.00;8.40;;;;;;;5.26;75.13;99499.75;1742534;81;21916;-69
2022/03/04 03:20:44;;;;;;;15.13;7.62;;;;;;;5.29;74.45;99504.50;1748437;81;21229;-70
2022/03/04 03:23:13;;;;;;;15.48;8.50;;;;;;;5.31;74.80;99506.16;1750365;82;21523;-69
2022/03/04 03:25:39;;;;;;;14.78;8.50;;;;;;;5.32;74.83;99507.05;1750704;82;21247;-69
2022/03/04 03:28:08;;;;;;;15.32;7.70;;;;;;;5.31;74.36;99510.54;1750679;82;20989;-69
2022/03/04 03:30:34;;;;;;;19.80;8.73;;;;;;;5.13;74.35;99509.23;1750682;82;21014;-69
2022/03/04 03:33:01;;;;;;;15.88;8.58;;;;;;;4.99;74.59;99512.19;1751127;82;21046;-68
2022/03/04 03:35:27;;;;;;;15.40;8.05;;;;;;;4.86;74.59;99505.57;1750526;82;20992;-68
2022/03/04 03:37:53;;;;;;;16.30;7.15;;;;;;;4.65;75.75;99505.17;1750480;82;21470;-69
2022/03/04 03:40:20;;;;;;;12.45;7.20;;;;;;;4.63;76.57;99509.56;1750631;82;21114;-69
2022/03/04 03:42:47;;;;;;;13.28;6.92;;;;;;;4.72;76.35;99506.74;1750946;82;21057;-69
2022/03/04 03:45:13;;;;;;;11.10;6.90;;;;;;;4.77;77.46;99503.58;1750560;82;21819;-70
2022/03/04 03:47:40;;;;;;;12.95;7.15;;;;;;;5.02;77.50;99506.91;1750353;82;21037;-69
2022/03/04 03:50:09;;;;;;;11.28;7.00;;;;;;;5.15;75.65;99507.00;1750508;82;21061;-68
2022/03/04 03:52:36;;;;;;;15.98;7.62;;;;;;;5.09;74.99;99512.84;1750822;82;21017;-69
2022/03/04 03:55:05;;;;;;;17.42;8.20;;;;;;;5.01;75.69;99508.64;1750573;82;21038;-69
2022/03/04 03:57:31;;;;;;;13.13;6.95;;;;;;;4.99;75.12;99505.66;1750548;82;21170;-70
2022/03/04 03:59:58;;;;;;;13.10;6.60;;;;;;;4.80;75.58;99506.55;1750740;82;21042;-69
2022/03/04 04:02:24;;;;;;;14.38;7.58;;;;;;;4.79;76.66;99507.46;1750515;82;21104;-70
2022/03/04 04:04:50;;;;;;;13.95;6.40;;;;;;;4.86;75.62;99509.03;1750758;82;21030;-69
2022/03/04 04:07:17;;;;;;;16.60;7.05;;;;;;;4.74;75.52;99502.35;1750537;82;21069;-69
2022/03/04 04:09:44;;;;;;;14.28;7.20;;;;;;;4.65;76.28;99502.56;1750618;82;21852;-69
2022/03/04 04:12:11;;;;;;;13.20;6.97;;;;;;;4.73;77.50;99499.31;1750488;82;21074;-69
2022/03/04 04:14:37;;;;;;;10.87;6.00;;;;;;;4.88;76.55;99503.75;1750396;82;21029;-69
2022/03/04 04:17:04;;;;;;;16.77;7.50;;;;;;;4.92;76.01;99496.27;1750240;81;21050;-69
2022/03/04 04:19:32;;;;;;;12.05;6.60;;;;;;;4.92;75.78;99494.97;1750559;82;21057;-69
2022/03/04 04:21:58;;;;;;;11.95;6.25;;;;;;;4.88;75.87;99496.81;1750498;82;23293;-70
2022/03/04 04:24:25;;;;;;;13.80;7.67;;;;;;;4.82;75.49;99492.58;1750248;82;21037;-69
2022/03/04 04:26:51;;;;;;;15.30;7.45;;;;;;;4.83;76.21;99498.22;1750413;82;21089;-69
2022/03/04 04:29:17;;;;;;;16.17;7.45;;;;;;;4.80;75.30;99496.12;1750332;82;21062;-68
2022/03/04 04:31:43;;;;;;;11.65;6.67;;;;;;;4.78;76.30;99501.36;1750607;82;21085;-68
2022/03/04 04:34:11;;;;;;;14.20;7.30;;;;;;;4.90;76.12;99501.97;1750915;82;21122;-70
2022/03/04 04:36:37;;;;;;;15.65;7.90;;;;;;;5.04;76.01;99497.30;1750371;82;21056;-69
2022/03/04 04:39:03;;;;;;;16.60;7.80;;;;;;;5.10;75.41;99490.59;1750458;81;21101;-69
2022/03/04 04:41:30;;;;;;;15.78;7.85;;;;;;;5.12;74.43;99492.73;1750550;82;21105;-69
2022/03/04 04:43:56;;;;;;;13.95;7.92;;;;;;;5.01;74.94;99499.50;1750871;82;21069;-68
2022/03/04 04:46:22;;;;;;;15.38;8.83;;;;;;;4.92;75.20;99494.97;1750527;82;21215;-69
2022/03/04 04:48:49;;;;;;;15.93;8.28;;;;;;;4.79;74.55;99507.01;1750981;82;21050;-69
2022/03/04 04:51:15;;;;;;;15.05;8.53;;;;;;;4.74;75.77;99501.47;1750808;82;21057;-68
2022/03/04 04:53:42;;;;;;;18.80;9.05;;;;;;;4.79;75.23;99508.77;1751460;81;21089;-69
2022/03/04 04:56:08;;;;;;;15.60;8.60;;;;;;;4.66;74.96;99502.96;1753885;81;21036;-71
2022/03/04 04:58:35;;;;;;;16.90;7.80;;;;;;;4.48;76.05;99502.92;1754004;81;21857;-69
2022/03/04 05:01:01;;;;;;;11.78;7.03;;;;;;;4.29;76.09;99508.14;1752281;81;21057;-68
2022/03/04 05:03:28;;;;;;;14.90;7.92;;;;;;;4.17;77.49;99510.11;1751083;81;21152;-68
2022/03/04 05:05:56;;;;;;;16.85;9.33;;;;;;;4.17;77.82;99517.93;1750740;81;21526;-69
2022/03/04 05:08:24;;;;;;;18.65;9.25;;;;;;;4.25;77.97;99515.16;1750861;81;21061;-69
2022/03/04 05:10:50;;;;;;;19.10;9.30;;;;;;;4.20;78.99;99511.79;1750684;81;21079;-69
2022/03/04 05:13:17;;;;;;;18.17;9.00;;;;;;;4.22;77.54;99512.63;1750832;82;21482;-69
2022/03/04 05:15:43;;;;;;;16.55;8.63;;;;;;;4.13;78.34;99521.94;1750582;81;21018;-70
2022/03/04 05:18:09;;;;;;;13.93;7.85;;;;;;;4.14;78.13;99513.21;1750825;82;21045;-70
2022/03/04 05:20:36;;;;;;;16.15;8.55;;;;;;;4.07;78.13;99520.74;1752751;80;21553;-68
2022/03/04 05:23:03;;;;;;;16.87;8.88;;;;;;;4.07;78.87;99523.34;1755905;81;21584;-69
2022/03/04 05:25:29;;;;;;;14.07;7.97;;;;;;;4.15;79.50;99521.46;1755940;81;21534;-70
2022/03/04 05:27:56;;;;;;;16.17;8.78;;;;;;;4.31;79.02;99526.77;1756051;81;21256;-70
2022/03/04 05:30:22;;;;;;;18.92;9.95;;;;;;;4.42;78.45;99523.94;1755999;81;21037;-68
2022/03/04 05:32:49;;;;;;;17.60;9.53;;;;;;;4.45;77.84;99536.90;1756461;81;21601;-69
2022/03/04 05:35:15;;;;;;;21.25;10.45;;;;;;;4.52;77.92;99537.63;1755767;81;21141;-71
2022/03/04 05:37:42;;;;;;;15.60;9.03;;;;;;;4.58;76.54;99536.20;1755998;81;21030;-69
2022/03/04 05:40:09;;;;;;;16.15;8.65;;;;;;;4.37;76.76;99542.28;1755818;81;21546;-69
2022/03/04 05:42:36;;;;;;;19.65;9.25;;;;;;;4.27;77.41;99543.34;1755757;81;21786;-70
2022/03/04 05:45:03;;;;;;;16.15;7.35;;;;;;;4.19;78.39;99538.30;1755780;81;21041;-70
2022/03/04 05:47:30;;;;;;;13.55;7.53;;;;;;;4.34;77.78;99550.15;1755813;81;21153;-69
2022/03/04 05:49:56;;;;;;;21.17;9.10;;;;;;;4.43;77.70;99553.47;1755865;81;21119;-71
2022/03/04 05:52:22;;;;;;;18.80;9.40;;;;;;;4.47;76.76;99557.73;1756003;81;21050;-70
2022/03/04 05:54:48;;;;;;;16.42;9.10;;;;;;;4.46;77.18;99567.73;1752789;81;21119;-71
2022/03/04 05:57:15;;;;;;;18.30;9.03;;;;;;;4.57;76.75;99567.06;1750534;82;21482;-70
2022/03/04 05:59:41;;;;;;;14.95;8.35;;;;;;;4.65;76.41;99564.28;1750278;81;21064;-68
2022/03/04 06:02:07;;;;;;;15.88;7.90;;;;;;;4.67;75.10;99569.90;1755001;81;21499;-69
2022/03/04 06:04:34;;;;;;;16.10;8.20;;;;;;;4.68;75.00;99569.45;1755975;81;21066;-69
2022/03/04 06:07:00;;;;;;;13.40;7.47;;;;;;;4.69;75.82;99569.84;1755889;81;21518;-70
2022/03/04 06:09:28;;;;;;;14.45;7.65;;;;;;;4.65;75.10;99575.59;1755955;81;21068;-68
2022/03/04 06:12:00;;;;;;;14.75;8.30;;;;;;;4.65;75.33;99572.98;1755833;81;22010;-69
2022/03/04 06:14:23;;;;;;;19.73;9.38;;;;;;;4.78;75.64;99577.02;1755035;81;22102;-70
2022/03/04 06:16:50;;;;;;;14.40;7.80;;;;;;;4.83;73.76;99578.22;1756052;81;21085;-69
2022/03/04 06:19:16;;;;;;;14.78;8.25;;;;;;;4.79;74.65;99577.90;1755810;81;21033;-69
2022/03/04 06:21:43;;;;;;;15.85;8.45;;;;;;;4.86;76.14;99576.02;1746676;81;21105;-70
2022/03/04 06:24:09;;;;;;;16.85;9.08;;;;;;;5.11;75.39;99579.77;1742595;82;21090;-69
2022/03/04 06:26:35;;;;;;;16.57;10.05;;;;;;;5.35;73.36;99574.84;1742780;81;21146;-69
2022/03/04 06:29:01;;;;;;;21.52;9.60;;;;;;;5.28;72.72;99578.51;1742540;81;20983;-68
2022/03/04 06:31:28;;;;;;;16.85;9.33;;;;;;;5.21;72.22;99576.48;1742865;82;21037;-71
2022/03/04 06:33:55;;;;;;;16.70;8.53;;;;;;;5.03;72.55;99574.71;1742570;82;21058;-70
2022/03/04 06:36:22;;;;;;;14.53;7.30;;;;;;;4.95;72.93;99570.12;1742660;82;21117;-70
2022/03/04 06:38:50;;;;;;;15.35;7.85;;;;;;;4.89;72.43;99575.94;1742630;82;21779;-69
2022/03/04 06:41:16;;;;;;;17.57;8.75;;;;;;;4.82;72.72;99578.67;1742875;82;21085;-70
2022/03/04 06:43:43;;;;;;;17.87;9.13;;;;;;;4.75;72.47;99577.09;1742538;82;21043;-70
2022/03/04 06:46:10;;;;;;;13.78;7.95;;;;;;;4.70;73.72;99568.52;1742657;82;21589;-69
2022/03/04 06:48:36;;;;;;;17.20;9.13;;;;;;;4.92;74.15;99574.55;1742503;82;21060;-70
2022/03/04 06:51:03;;;;;;;16.10;7.78;;;;;;;5.15;72.41;99575.32;1742750;82;21518;-70
2022/03/04 06:53:30;;;;;;;15.85;8.20;;;;;;;5.17;72.61;99575.69;1742504;81;21029;-69
2022/03/04 06:55:56;;;;;;;15.10;8.30;;;;;;;5.33;71.83;99571.41;1748123;82;21048;-71
2022/03/04 06:58:23;;;;;;;16.87;8.00;;;;;;;5.40;71.63;99565.14;1747869;82;20997;-69
2022/03/04 07:00:49;;;;;;;15.48;8.18;;;;;;;5.48;70.83;99570.19;1748324;82;21909;-70
2022/03/04 07:03:16;;;;;;;18.07;8.40;;;;;;;5.75;70.62;99572.52;1747642;82;21061;-68
2022/03/04 07:05:46;;;;;;;17.48;9.25;;;;;;;6.16;69.49;99560.13;1748152;82;21049;-71
2022/03/04 07:08:13;;;;;;;15.38;8.28;;;;;;;6.59;68.02;99566.74;1747659;82;21014;-69
2022/03/04 07:10:43;;;;;;;14.93;8.13;;;;;;;6.89;67.01;99569.73;1748144;82;21016;-70
2022/03/04 07:13:10;;;;;;;16.70;8.65;;;;;;;7.13;65.08;99569.86;1747974;82;21183;-70
2022/03/04 07:15:40;;;;;;;16.30;8.48;;;;;;;7.33;63.80;99572.69;1747985;82;21492;-69
2022/03/04 07:18:08;;;;;;;13.72;7.17;;;;;;;7.48;63.81;99573.13;1747931;82;21644;-70
2022/03/04 07:20:35;;;;;;;15.18;8.40;;;;;;;7.72;62.54;99564.41;1748273;80;21032;-69
2022/03/04 07:23:02;;;;;;;15.53;7.45;;;;;;;7.78;61.76;99565.52;1747702;82;21044;-69
2022/03/04 07:25:29;;;;;;;12.35;6.33;;;;;;;7.85;61.08;99558.30;1747762;82;21354;-70
2022/03/04 07:27:56;;;;;;;16.02;7.83;;;;;;;8.13;60.60;99572.59;1747691;82;21028;-70
2022/03/04 07:30:22;;;;;;;16.02;6.80;;;;;;;8.20;58.04;99571.45;1747956;82;21056;-69
2022/03/04 07:32:49;;;;;;;14.38;7.80;;;;;;;7.93;59.07;99579.84;1747666;82;21564;-69
2022/03/04 07:35:17;;;;;;;13.95;7.65;;;;;;;7.66;59.18;99577.74;1747756;82;21104;-69
2022/03/04 07:37:44;;;;;;;13.88;7.45;;;;;;;7.56;60.04;99577.63;1747787;82;21876;-69
2022/03/04 07:40:13;;;;;;;16.00;7.40;;;;;;;7.58;60.15;99578.44;1747958;82;21021;-69
2022/03/04 07:42:40;;;;;;;14.98;7.85;;;;;;;7.64;59.91;99576.94;1747634;82;21101;-69
2022/03/04 07:45:10;;;;;;;17.02;7.97;;;;;;;7.61;59.80;99579.64;1747798;82;21017;-69
2022/03/04 07:47:38;;;;;;;11.25;6.78;;;;;;;7.40;59.98;99581.20;1748070;82;21462;-70
2022/03/04 07:50:07;;;;;;;13.80;7.35;;;;;;;7.25;60.79;99574.72;1747929;82;21846;-70
2022/03/04 07:52:34;;;;;;;15.63;7.75;;;;;;;7.23;60.91;99575.22;1747702;82;21100;-69
2022/03/04 07:55:03;;;;;;;13.72;6.97;;;;;;;7.10;60.49;99577.81;1744385;82;21109;-68
2022/03/04 07:57:31;;;;;;;17.45;7.95;;;;;;;6.86;61.04;99576.38;1741370;82;21034;-70
2022/03/04 07:59:57;;;;;;;10.20;6.40;;;;;;;6.68;60.71;99576.94;1742033;82;21013;-70
2022/03/04 08:02:24;;;;;;;16.17;8.25;;;;;;;6.54;61.53;99578.66;1741831;82;21286;-70
2022/03/04 08:04:50;;;;;;;14.68;7.25;;;;;;;6.53;61.94;99589.15;1742185;82;21033;-71
2022/03/04 08:07:17;;;;;;;16.45;7.87;;;;;;;6.49;62.04;99588.40;1742126;82;21014;-70
2022/03/04 08:09:46;;;;;;;13.20;6.75;;;;;;;6.42;62.12;99585.09;1742130;82;21058;-70
2022/03/04 08:12:14;;;;;;;16.62;7.15;;;;;;;6.58;62.99;99584.20;1741794;82;21040;-69
2022/03/04 08:14:41;;;;;;;18.92;7.05;;;;;;;6.71;61.92;99585.53;1741848;82;21371;-71
2022/03/04 08:17:07;;;;;;;14.53;7.85;;;;;;;6.73;61.14;99586.80;1741783;82;21045;-70
2022/03/04 08:19:35;;;;;;;15.05;7.70;;;;;;;6.79;61.03;99594.94;1741746;82;21049;-70
2022/03/04 08:22:03;;;;;;;13.68;7.10;;;;;;;6.72;59.97;99586.41;1738739;82;22229;-70
2022/03/04 08:24:30;;;;;;;16.70;7.20;;;;;;;6.46;60.12;99589.77;1736248;82;21038;-69
2022/03/04 08:26:57;;;;;;;13.28;7.40;;;;;;;6.33;61.08;99587.09;1736510;82;21902;-70
2022/03/04 08:29:23;;;;;;;13.00;6.87;;;;;;;6.49;61.27;99587.94;1736284;82;21022;-70
2022/03/04 08:31:50;;;;;;;12.78;7.37;;;;;;;6.67;60.78;99585.24;1736567;82;21057;-68
2022/03/04 08:35:35;;;;;;;12.07;6.70;;;;;;;7.01;60.36;99595.13;1814294;79;28099;-71
2022/03/04 08:38:02;;;;;;;14.15;7.75;;;;;;;6.87;59.07;99596.86;1787439;80;21018;-70
2022/03/04 08:40:29;;;;;;;15.45;7.33;;;;;;;6.77;59.79;99593.67;1787174;80;22136;-70
2022/03/04 08:42:57;;;;;;;12.33;6.15;;;;;;;6.88;59.60;99603.37;1787036;80;20966;-69
2022/03/04 08:45:24;;;;;;;14.23;7.45;;;;;;;6.92;58.83;99599.76;1777609;79;21047;-70
2022/03/04 08:47:50;;;;;;;14.20;7.33;;;;;;;7.03;58.86;99607.72;1756054;81;21140;-70
2022/03/04 08:50:17;;;;;;;12.40;7.15;;;;;;;6.86;59.48;99602.55;1756152;81;21616;-70
2022/03/04 08:52:43;;;;;;;13.80;7.17;;;;;;;6.90;58.92;99598.95;1756048;81;21222;-71
2022/03/04 08:55:16;;;;;;;12.20;6.67;;;;;;;6.93;58.48;99597.53;1755902;81;21361;-70
2022/03/04 08:57:46;;;;;;;12.37;6.72;;;;;;;6.84;59.11;99597.81;1756063;81;21053;-69
2022/03/04 09:00:16;;;;;;;15.85;7.42;;;;;;;6.95;59.61;99605.35;1756188;81;21110;-72
2022/03/04 09:02:43;;;;;;;15.30;7.00;;;;;;;6.96;57.73;99612.74;1722926;83;22147;-69
2022/03/04 09:05:10;;;;;;;13.58;7.95;;;;;;;6.83;58.38;99611.81;1722713;83;21247;-70
2022/03/04 09:07:37;;;;;;;14.50;7.47;;;;;;;6.87;59.12;99613.41;1722456;83;21117;-70
2022/03/04 09:10:05;;;;;;;18.95;7.90;;;;;;;6.99;58.73;99607.41;1722608;83;21084;-71
2022/03/04 09:12:33;;;;;;;13.58;7.50;;;;;;;7.05;58.30;99604.15;1722624;83;21077;-71
2022/03/04 09:15:00;;;;;;;15.10;7.45;;;;;;;7.01;58.28;99606.91;1722751;83;21049;-70
2022/03/04 09:17:27;;;;;;;17.25;8.00;;;;;;;7.09;58.47;99603.61;1722848;83;21222;-69
2022/03/04 09:19:54;;;;;;;23.02;7.87;;;;;;;7.18;59.02;99602.02;1722956;83;21069;-71
2022/03/04 09:22:22;;;;;;;13.25;7.22;;;;;;;7.21;57.32;99594.52;1722900;83;21104;-70
2022/03/04 09:24:48;;;;;;;12.63;7.67;;;;;;;7.15;56.99;99604.70;1723026;83;21096;-70
2022/03/04 09:27:15;;;;;;;17.27;7.87;;;;;;;7.10;57.44;99602.70;1722760;83;21057;-70
2022/03/04 09:29:41;;;;;;;13.58;7.80;;;;;;;7.17;57.19;99598.98;1723075;83;21929;-71
2022/03/04 09:32:08;;;;;;;15.58;7.95;;;;;;;6.99;56.87;99606.94;1695988;83;22160;-70
2022/03/04 09:34:34;;;;;;;17.92;7.12;;;;;;;6.84;57.38;99603.05;1673876;85;21030;-69
2022/03/04 09:37:00;;;;;;;13.58;7.37;;;;;;;6.82;57.91;99603.54;1665519;86;21081;-71
2022/03/04 09:39:27;;;;;;;16.17;7.92;;;;;;;6.83;57.64;99609.20;1665649;85;21077;-71
2022/03/04 09:41:54;;;;;;;14.55;7.22;;;;;;;6.93;57.62;99609.31;1665314;86;22245;-71
2022/03/04 09:44:21;;;;;;;14.33;7.78;;;;;;;7.18;57.79;99599.40;1665329;86;21619;-70
2022/03/04 09:46:49;;;;;;;15.48;7.30;;;;;;;7.37;57.34;99604.05;1665210;84;21076;-70
2022/03/04 09:49:16;;;;;;;13.10;7.90;;;;;;;7.39;56.29;99596.54;1665148;86;21128;-71
2022/03/04 09:51:43;;;;;;;33.50;7.92;;;;;;;7.39;55.94;99598.31;1665113;86;21062;-71
2022/03/04 09:54:10;;;;;;;19.37;8.78;;;;;;;7.48;55.66;99601.94;1669749;85;21876;-70
2022/03/04 09:56:38;;;;;;;12.80;7.28;;;;;;;7.54;55.53;99603.03;1680435;85;21116;-71
2022/03/04 09:59:04;;;;;;;15.32;8.48;;;;;;;7.63;55.51;99605.34;1680887;84;21068;-69
2022/03/04 10:01:31;;;;;;;12.18;6.53;;;;;;;7.78;54.80;99600.05;1680858;85;21084;-70
2022/03/04 10:03:57;;;;;;;17.55;8.23;;;;;;;7.78;55.62;99601.37;1680831;85;21132;-70
2022/03/04 10:06:24;;;;;;;13.62;8.05;;;;;;;7.92;54.53;99599.59;1680474;85;21259;-70
2022/03/04 10:08:52;;;;;;;14.10;7.60;;;;;;;7.96;54.86;99601.20;1680367;85;21061;-69
2022/03/04 10:11:30;;;;;;;14.38;7.50;;;;;;;8.08;55.01;99612.56;1680453;85;21116;-70
2022/03/04 10:14:01;;;;;;;15.00;8.20;;;;;;;8.16;53.92;99611.81;1680547;85;21553;-70
2022/03/04 10:16:39;;;;;;;16.57;8.23;;;;;;;8.15;53.62;99607.95;1680635;84;21542;-71
2022/03/04 10:19:15;;;;;;;18.10;7.33;;;;;;;8.13;53.14;99611.94;1680560;85;21853;-71
2022/03/04 10:21:55;;;;;;;14.03;7.42;;;;;;;8.03;54.43;99607.94;1680514;85;21080;-70
2022/03/04 10:24:37;;;;;;;20.12;9.25;;;;;;;8.01;53.87;99612.37;1680910;85;21136;-70
2022/03/04 10:27:09;;;;;;;16.62;8.00;;;;;;;8.08;53.60;99615.18;1680718;85;21096;-70
2022/03/04 10:29:42;;;;;;;14.87;8.10;;;;;;;7.86;53.62;99610.27;1680801;85;21128;-70
2022/03/04 10:32:18;;;;;;;17.77;8.58;;;;;;;7.92;53.48;99607.45;1680867;85;21948;-72
2022/03/04 10:35:06;;;;;;;17.23;8.35;;;;;;;8.20;52.90;99616.05;1680594;85;21034;-70
2022/03/04 10:37:54;;;;;;;15.65;8.23;;;;;;;8.51;51.88;99614.11;1680849;85;21620;-70
2022/03/04 10:40:25;;;;;;;22.40;9.08;;;;;;;8.67;52.54;99615.72;1680923;85;21089;-71
2022/03/04 10:43:02;;;;;;;18.52;8.13;;;;;;;8.84;51.21;99602.82;1680601;84;21644;-69
2022/03/04 10:45:40;;;;;;;15.35;7.42;;;;;;;8.89;50.11;99607.44;1680487;84;21112;-70
2022/03/04 10:48:14;;;;;;;12.40;7.22;;;;;;;8.90;49.85;99606.50;1679964;85;21072;-70
2022/03/04 10:50:44;;;;;;;14.75;8.23;;;;;;;8.98;50.35;99612.33;1680645;85;21583;-69
2022/03/04 10:53:25;;;;;;;14.65;8.18;;;;;;;9.13;49.96;99608.70;1680613;85;21096;-71
2022/03/04 10:56:06;;;;;;;15.90;7.62;;;;;;;9.13;48.56;99617.89;1666655;86;21090;-70
2022/03/04 10:58:37;;;;;;;12.93;5.97;;;;;;;8.96;48.67;99611.53;1693860;84;21290;-70
2022/03/04 11:01:10;;;;;;;16.07;8.48;;;;;;;8.79;49.45;99604.31;1693722;84;21071;-70
2022/03/04 11:03:38;;;;;;;13.72;7.65;;;;;;;8.77;49.04;99605.29;1694362;84;21079;-69
2022/03/04 11:06:11;;;;;;;14.98;7.70;;;;;;;8.81;50.10;99606.42;1694998;84;22226;-72
2022/03/04 11:08:38;;;;;;;15.83;8.18;;;;;;;8.89;49.76;99606.13;1693869;84;21605;-70
2022/03/04 11:11:10;;;;;;;25.00;8.98;;;;;;;8.78;49.19;99613.08;1694434;84;22177;-71
2022/03/04 11:13:37;;;;;;;17.02;8.33;;;;;;;8.57;49.80;99610.81;1694382;84;21634;-72
2022/03/04 11:16:07;;;;;;;17.52;8.50;;;;;;;8.45;50.11;99613.90;1694116;84;21122;-71
2022/03/04 11:18:35;;;;;;;17.10;8.38;;;;;;;8.30;50.47;99607.84;1694498;84;21169;-70
2022/03/04 11:21:06;;;;;;;17.42;8.63;;;;;;;8.18;51.03;99608.69;1694428;84;21099;-70
2022/03/04 11:23:35;;;;;;;16.40;9.18;;;;;;;8.20;50.91;99613.42;1694492;84;21271;-73
2022/03/04 11:26:05;;;;;;;18.52;9.08;;;;;;;8.11;50.99;99602.41;1694563;84;21542;-70
2022/03/04 11:28:41;;;;;;;17.82;8.78;;;;;;;7.93;50.73;99606.52;1664609;84;21479;-71
2022/03/04 11:31:13;;;;;;;18.60;9.75;;;;;;;7.86;51.52;99603.72;1694861;84;21571;-71
2022/03/04 11:33:54;;;;;;;17.07;8.18;;;;;;;7.96;51.91;99606.44;1694487;84;21077;-70
2022/03/04 11:36:22;;;;;;;;;;;;;;;8.13;51.70;99600.13;1701646;84;21342;-70